createdAt,value
2018-09-15T00:03:00.945Z,58.70
2018-09-15T00:07:04.676Z,58.80
2018-09-15T00:11:08.384Z,58.90
2018-09-15T00:15:12.169Z,59.00
2018-09-15T00:19:15.925Z,59.10
2018-09-15T00:23:19.621Z,59.20
2018-09-15T00:27:23.373Z,59.40
2018-09-15T00:31:27.101Z,59.40
2018-09-15T00:35:30.808Z,59.60
2018-09-15T00:39:34.482Z,59.60
2018-09-15T00:43:38.234Z,59.70
2018-09-15T00:47:41.912Z,59.90
2018-09-15T00:51:45.623Z,59.80
2018-09-15T00:55:49.363Z,59.70
2018-09-15T00:59:53.065Z,59.50
2018-09-15T01:03:56.780Z,59.50
2018-09-15T01:08:00.453Z,59.50
2018-09-15T01:12:04.152Z,59.50
2018-09-15T01:16:07.884Z,59.60
2018-09-15T01:20:11.623Z,59.70
2018-09-15T01:24:15.280Z,59.70
2018-09-15T01:28:18.951Z,59.80
2018-09-15T01:32:22.712Z,59.70
2018-09-15T01:36:26.389Z,59.80
2018-09-15T01:40:30.135Z,60.10
2018-09-15T01:44:33.792Z,60.90
2018-09-15T01:48:37.483Z,60.00
2018-09-15T01:52:41.167Z,59.90
2018-09-15T01:56:44.951Z,59.90
2018-09-15T02:00:48.719Z,59.90
2018-09-15T02:04:52.341Z,60.10
2018-09-15T02:08:56.012Z,60.20
2018-09-15T02:12:59.724Z,59.50
2018-09-15T02:17:03.400Z,60.10
2018-09-15T02:21:07.147Z,60.10
2018-09-15T02:25:10.796Z,60.30
2018-09-15T02:29:14.485Z,60.10
2018-09-15T02:33:18.149Z,60.10
2018-09-15T02:37:21.836Z,60.10
2018-09-15T02:41:25.494Z,60.40
2018-09-15T02:45:29.116Z,60.30
2018-09-15T02:49:32.787Z,60.40
2018-09-15T02:53:36.453Z,60.40
2018-09-15T02:57:40.120Z,61.20
2018-09-15T03:01:43.795Z,60.90
2018-09-15T03:05:47.444Z,60.60
2018-09-15T03:09:51.130Z,59.90
2018-09-15T03:13:54.799Z,60.60
2018-09-15T03:17:58.464Z,60.70
2018-09-15T03:22:02.136Z,61.50
2018-09-15T03:26:05.905Z,61.00
2018-09-15T03:30:09.592Z,61.10
2018-09-15T03:34:13.384Z,61.10
2018-09-15T03:38:17.088Z,61.30
2018-09-15T03:42:20.859Z,61.10
2018-09-15T03:46:24.545Z,61.50
2018-09-15T03:50:28.167Z,61.40
2018-09-15T03:54:31.845Z,61.50
2018-09-15T03:58:35.497Z,61.90
2018-09-15T04:02:39.161Z,62.30
2018-09-15T04:06:42.872Z,62.20
2018-09-15T04:10:46.487Z,61.80
2018-09-15T04:14:50.133Z,62.70
2018-09-15T04:18:53.812Z,62.20
2018-09-15T04:22:57.457Z,62.20
2018-09-15T04:27:01.119Z,62.30
2018-09-15T04:31:04.784Z,62.50
2018-09-15T04:35:08.507Z,64.10
2018-09-15T04:39:12.903Z,63.60
2018-09-15T04:43:16.560Z,63.10
2018-09-15T04:47:20.209Z,63.10
2018-09-15T04:51:23.847Z,63.40
2018-09-15T04:55:27.505Z,63.70
2018-09-15T04:59:31.157Z,63.70
2018-09-15T05:03:34.931Z,63.60
2018-09-15T05:07:38.583Z,63.40
2018-09-15T05:11:42.624Z,62.70
2018-09-15T05:15:46.242Z,63.20
2018-09-15T05:19:49.889Z,63.70
2018-09-15T05:23:53.564Z,63.50
2018-09-15T05:27:57.576Z,64.40
2018-09-15T05:32:01.289Z,64.60
2018-09-15T05:36:05.033Z,63.60
2018-09-15T05:40:08.708Z,64.10
2018-09-15T05:44:12.379Z,64.60
2018-09-15T05:48:16.141Z,64.20
2018-09-15T05:52:19.828Z,64.40
2018-09-15T05:56:23.480Z,64.50
2018-09-15T06:00:27.226Z,64.90
2018-09-15T06:04:30.881Z,65.10
2018-09-15T06:08:34.549Z,65.50
2018-09-15T06:12:38.238Z,64.70
2018-09-15T06:16:41.860Z,64.60
2018-09-15T06:20:45.519Z,64.80
2018-09-15T06:24:49.180Z,65.30
2018-09-15T06:28:52.908Z,65.70
2018-09-15T06:32:56.624Z,64.90
2018-09-15T06:37:00.291Z,65.60
2018-09-15T06:41:03.973Z,64.90
2018-09-15T06:45:07.840Z,65.20
2018-09-15T06:49:11.508Z,65.20
2018-09-15T06:53:15.176Z,65.30
2018-09-15T06:57:18.816Z,65.90
2018-09-15T07:01:22.577Z,66.00
2018-09-15T07:05:26.268Z,64.80
2018-09-15T07:09:29.985Z,65.60
2018-09-15T07:13:33.647Z,65.90
2018-09-15T07:17:37.292Z,65.40
2018-09-15T07:21:40.952Z,65.30
2018-09-15T07:25:44.784Z,65.10
2018-09-15T07:29:48.526Z,66.30
2018-09-15T07:33:52.197Z,66.20
2018-09-15T07:37:55.856Z,66.40
2018-09-15T07:41:59.548Z,66.70
2018-09-15T07:46:03.234Z,66.80
2018-09-15T07:50:07.008Z,65.70
2018-09-15T07:54:10.687Z,66.30
2018-09-15T07:58:14.406Z,66.70
2018-09-15T08:02:22.246Z,66.30
2018-09-15T08:06:25.929Z,64.70
2018-09-15T08:10:29.643Z,64.30
2018-09-15T08:14:33.339Z,64.40
2018-09-15T08:18:37.024Z,64.60
2018-09-15T08:22:40.677Z,64.70
2018-09-15T08:26:44.369Z,64.90
2018-09-15T08:30:48.094Z,64.90
2018-09-15T08:34:51.788Z,65.10
2018-09-15T08:38:55.475Z,65.20
2018-09-15T08:42:59.140Z,65.00
2018-09-15T08:47:02.851Z,65.10
2018-09-15T08:51:06.737Z,65.10
2018-09-15T08:55:10.448Z,65.10
2018-09-15T08:59:14.223Z,64.80
2018-09-15T09:03:17.880Z,64.90
2018-09-15T09:07:21.532Z,65.00
2018-09-15T09:11:25.729Z,65.00
2018-09-15T09:15:29.588Z,64.90
2018-09-15T09:19:33.261Z,65.00
2018-09-15T09:23:37.096Z,65.50
2018-09-15T09:27:40.812Z,64.60
2018-09-15T09:31:44.564Z,64.50
2018-09-15T09:35:48.549Z,63.50
2018-09-15T09:39:52.296Z,63.80
2018-09-15T09:43:55.941Z,66.60
2018-09-15T09:47:59.808Z,65.90
2018-09-15T09:52:03.515Z,66.30
2018-09-15T09:56:07.180Z,67.20
2018-09-15T10:00:15.184Z,66.10
2018-09-15T10:04:18.938Z,67.00
2018-09-15T10:08:22.616Z,67.00
2018-09-15T10:12:26.292Z,66.50
2018-09-15T10:16:30.038Z,68.00
2018-09-15T10:20:33.865Z,68.50
2018-09-15T10:24:37.523Z,68.90
2018-09-15T10:28:41.168Z,68.10
2018-09-15T10:32:45.120Z,67.90
2018-09-15T10:36:48.842Z,68.50
2018-09-15T10:40:52.514Z,69.10
2018-09-15T10:44:56.211Z,68.60
2018-09-15T10:49:00.041Z,68.00
2018-09-15T10:53:03.786Z,68.00
2018-09-15T10:57:07.544Z,67.60
2018-09-15T11:01:11.240Z,67.30
2018-09-15T11:05:14.935Z,66.90
2018-09-15T11:09:18.589Z,66.80
2018-09-15T11:13:22.365Z,66.60
2018-09-15T11:17:26.063Z,66.30
2018-09-15T11:21:29.817Z,66.10
2018-09-15T11:25:33.530Z,65.90
2018-09-15T11:29:37.277Z,66.00
2018-09-15T11:33:40.955Z,65.30
2018-09-15T11:37:44.738Z,65.40
2018-09-15T11:41:48.418Z,64.60
2018-09-15T11:45:52.166Z,63.70
2018-09-15T11:49:55.843Z,63.60
2018-09-15T11:53:59.673Z,63.80
2018-09-15T11:58:03.299Z,62.70
2018-09-15T12:02:07.154Z,62.90
2018-09-15T12:06:10.787Z,63.40
2018-09-15T12:10:21.190Z,63.20
2018-09-15T12:14:24.855Z,62.80
2018-09-15T12:18:28.548Z,64.10
2018-09-15T12:22:32.339Z,63.10
2018-09-15T12:26:36.363Z,63.20
2018-09-15T12:30:40.205Z,63.50
2018-09-15T12:34:43.985Z,62.40
2018-09-15T12:38:47.715Z,63.30
2018-09-15T12:42:51.564Z,63.00
2018-09-15T12:46:55.308Z,63.10
2018-09-15T12:50:59.029Z,62.40
2018-09-15T12:55:02.749Z,62.00
2018-09-15T12:59:06.989Z,62.60
2018-09-15T13:03:10.769Z,61.80
2018-09-15T13:07:14.740Z,62.10
2018-09-15T13:11:18.564Z,59.30
2018-09-15T13:15:22.309Z,60.00
2018-09-15T13:19:25.956Z,59.20
2018-09-15T13:23:29.648Z,60.20
2018-09-15T13:27:33.336Z,60.80
2018-09-15T13:31:37.117Z,60.50
2018-09-15T13:35:40.756Z,60.70
2018-09-15T13:39:44.445Z,60.10
2018-09-15T13:43:48.122Z,60.50
2018-09-15T13:47:51.852Z,60.40
2018-09-15T13:51:55.606Z,60.20
2018-09-15T13:55:59.249Z,59.40
2018-09-15T14:00:03.342Z,59.40
2018-09-15T14:04:07.198Z,59.40
2018-09-15T14:08:10.891Z,59.00
2018-09-15T14:12:15.463Z,59.10
2018-09-15T14:16:19.278Z,58.00
2018-09-15T14:20:23.013Z,57.20
2018-09-15T14:24:27.105Z,57.30
2018-09-15T14:28:30.803Z,57.30
2018-09-15T14:32:34.533Z,56.90
2018-09-15T14:36:38.201Z,56.80
2018-09-15T14:40:41.921Z,56.60
2018-09-15T14:48:42.160Z,56.50
2018-09-15T14:52:45.877Z,57.30
2018-09-15T14:56:49.592Z,57.50
2018-09-15T15:00:53.277Z,56.80
2018-09-15T15:04:57.000Z,56.10
2018-09-15T15:09:00.700Z,57.40
2018-09-15T15:13:04.392Z,56.50
2018-09-15T15:17:08.094Z,54.30
2018-09-15T15:21:12.105Z,55.80
2018-09-15T15:25:15.852Z,56.00
2018-09-15T15:29:19.549Z,55.90
2018-09-15T15:33:23.235Z,56.70
2018-09-15T15:37:26.885Z,56.10
2018-09-15T15:41:30.651Z,56.30
2018-09-15T15:45:34.340Z,55.30
2018-09-15T15:49:38.081Z,56.50
2018-09-15T15:53:41.833Z,55.70
2018-09-15T15:57:45.538Z,56.00
2018-09-15T16:01:49.296Z,56.60
2018-09-15T16:05:52.964Z,56.70
2018-09-15T16:09:56.640Z,56.20
2018-09-15T16:14:00.343Z,56.50
2018-09-15T16:18:04.092Z,57.10
2018-09-15T16:22:07.806Z,56.50
2018-09-15T16:26:11.500Z,56.40
2018-09-15T16:30:15.293Z,56.50
2018-09-15T16:34:19.035Z,56.80
2018-09-15T16:38:22.953Z,56.30
2018-09-15T16:42:26.826Z,56.70
2018-09-15T16:46:30.681Z,56.90
2018-09-15T16:50:34.533Z,56.80
2018-09-15T16:54:38.245Z,57.20
2018-09-15T16:58:41.944Z,57.30
2018-09-15T17:02:45.627Z,57.30
2018-09-15T17:06:49.322Z,57.60
2018-09-15T17:10:53.064Z,57.10
2018-09-15T17:14:56.733Z,57.10
2018-09-15T17:19:00.424Z,57.70
2018-09-15T17:23:04.367Z,57.70
2018-09-15T17:27:08.111Z,57.50
2018-09-15T17:31:11.889Z,57.60
2018-09-15T17:35:15.525Z,57.70
2018-09-15T17:39:19.219Z,57.80
2018-09-15T17:43:22.869Z,57.80
2018-09-15T17:47:26.527Z,58.00
2018-09-15T17:51:30.189Z,57.90
2018-09-15T17:55:33.924Z,58.00
2018-09-15T17:59:37.591Z,58.20
2018-09-15T18:03:41.339Z,58.30
2018-09-15T18:07:44.976Z,58.90
2018-09-15T18:11:48.633Z,58.40
2018-09-15T18:15:52.367Z,58.40
2018-09-15T18:19:56.067Z,58.40
2018-09-15T18:23:59.812Z,58.40
2018-09-15T18:28:03.537Z,58.50
2018-09-15T18:32:07.229Z,58.50
2018-09-15T18:36:11.010Z,58.50
2018-09-15T18:40:14.745Z,58.60
2018-09-15T18:44:18.435Z,58.60
2018-09-15T18:48:22.132Z,58.70
2018-09-15T18:52:25.791Z,58.80
2018-09-15T18:56:29.501Z,58.70
2018-09-15T19:00:33.257Z,58.80
2018-09-15T19:04:36.872Z,58.90
2018-09-15T19:08:40.625Z,58.80
2018-09-15T19:12:44.274Z,58.80
2018-09-15T19:16:47.920Z,58.90
2018-09-15T19:20:51.568Z,58.90
2018-09-15T19:24:55.206Z,58.90
2018-09-15T19:28:58.895Z,58.90
2018-09-15T19:33:02.637Z,58.90
2018-09-15T19:37:06.478Z,58.90
2018-09-15T19:41:10.387Z,59.00
2018-09-15T19:45:14.042Z,58.50
2018-09-15T19:49:17.692Z,59.10
2018-09-15T19:53:21.357Z,59.10
2018-09-15T19:57:25.072Z,59.10
2018-09-15T20:01:28.845Z,59.10
2018-09-15T20:05:32.497Z,59.10
2018-09-15T20:09:36.199Z,59.10
2018-09-15T20:13:39.859Z,59.20
2018-09-15T20:17:42.315Z,59.20
2018-09-15T20:21:44.788Z,59.30
2018-09-15T20:25:48.454Z,59.30
2018-09-15T20:29:52.098Z,59.40
2018-09-15T20:33:55.795Z,59.40
2018-09-15T20:37:59.452Z,59.30
2018-09-15T20:42:03.159Z,59.40
2018-09-15T20:46:06.868Z,59.50
2018-09-15T20:50:10.512Z,59.50
2018-09-15T20:54:14.212Z,59.60
2018-09-15T20:58:17.884Z,59.70
2018-09-15T21:02:21.529Z,59.70
2018-09-15T21:06:25.234Z,59.70
2018-09-15T21:10:28.855Z,59.70
2018-09-15T21:14:32.500Z,59.70
2018-09-15T21:18:36.175Z,59.70
2018-09-15T21:22:39.863Z,59.80
2018-09-15T21:26:43.540Z,59.80
2018-09-15T21:30:47.203Z,59.90
2018-09-15T21:34:50.948Z,60.00
2018-09-15T21:38:54.683Z,60.20
2018-09-15T21:42:58.352Z,60.10
2018-09-15T21:47:02.031Z,60.50
2018-09-15T21:51:06.139Z,60.30
2018-09-15T21:55:09.806Z,60.30
2018-09-15T21:59:13.548Z,60.30
2018-09-15T22:03:21.419Z,60.30
2018-09-15T22:07:25.058Z,60.40
2018-09-15T22:11:28.771Z,60.40
2018-09-15T22:15:32.496Z,60.30
2018-09-15T22:19:36.175Z,61.10
2018-09-15T22:23:39.827Z,60.80
2018-09-15T22:27:43.465Z,60.30
2018-09-15T22:31:47.183Z,60.50
2018-09-15T22:35:50.859Z,60.50
2018-09-15T22:39:54.515Z,60.60
2018-09-15T22:43:58.162Z,60.80
2018-09-15T22:48:01.793Z,61.30
2018-09-15T22:52:05.453Z,60.80
2018-09-15T22:56:09.119Z,60.70
2018-09-15T23:00:12.791Z,60.90
2018-09-15T23:04:17.013Z,60.90
2018-09-15T23:08:20.709Z,60.80
2018-09-15T23:12:24.359Z,60.90
2018-09-15T23:16:28.038Z,60.90
2018-09-15T23:20:31.809Z,60.90
2018-09-15T23:24:35.495Z,61.00
2018-09-15T23:28:39.164Z,61.40
2018-09-15T23:32:42.864Z,61.40
2018-09-15T23:36:46.534Z,61.20
2018-09-15T23:40:50.233Z,61.30
2018-09-15T23:44:53.944Z,60.10
2018-09-15T23:48:57.671Z,61.50
2018-09-15T23:53:01.316Z,61.60
2018-09-15T23:57:05.141Z,61.70
